Terminal Aerodrome Forecast
Issued by NWS Lake Charles, LA

Home | Current Version | Previous Version | Text Only | Print | Product List | Glossary On
Versions: 1 2 3 4 5 6 7 8 9 10 11 12 13 14 15
000
FTUS44 KLCH 262328
TAFAEX
TAF
KAEX 262328Z 2700/2724 15009KT P6SM SCT050 BKN100
     FM270600 14010KT P6SM VCSH SCT015 BKN025
     FM270900 14009KT P6SM VCSH OVC015
     FM271500 16007KT P6SM VCTS SCT007 BKN015CB
      TEMPO 2716/2720 2SM TSRA BKN015CB
     FM272000 19010KT P6SM VCTS BKN025CB PROB30 2720/2724 4SM -SHRA
      BKN025=

USA.gov is the U.S. government's official web portal to all federal, state and local government web resources and services.